sensor_id;sensor_type;location;lat;lon;timestamp;P1;durP1;ratioP1;P2;durP2;ratioP2
52878;SDS011;38747;53.140;6.498;2022-10-31T00:02:10;19.95;;;11.13;;
52878;SDS011;38747;53.140;6.498;2022-10-31T00:04:35;22.88;;;11.38;;
52878;SDS011;38747;53.140;6.498;2022-10-31T00:07:01;27.67;;;11.87;;
52878;SDS011;38747;53.140;6.498;2022-10-31T00:09:26;22.47;;;11.33;;
52878;SDS011;38747;53.140;6.498;2022-10-31T00:11:52;24.98;;;12.20;;
52878;SDS011;38747;53.140;6.498;2022-10-31T00:14:18;29.10;;;11.70;;
52878;SDS011;38747;53.140;6.498;2022-10-31T00:16:43;28.00;;;12.35;;
52878;SDS011;38747;53.140;6.498;2022-10-31T00:19:09;25.40;;;12.73;;
52878;SDS011;38747;53.140;6.498;2022-10-31T00:21:35;23.58;;;12.07;;
52878;SDS011;38747;53.140;6.498;2022-10-31T00:24:01;25.40;;;12.00;;
52878;SDS011;38747;53.140;6.498;2022-10-31T00:26:27;23.07;;;12.30;;
52878;SDS011;38747;53.140;6.498;2022-10-31T00:28:54;23.50;;;12.27;;
52878;SDS011;38747;53.140;6.498;2022-10-31T00:31:19;23.13;;;12.55;;
52878;SDS011;38747;53.140;6.498;2022-10-31T00:33:45;23.47;;;12.70;;
52878;SDS011;38747;53.140;6.498;2022-10-31T00:36:15;25.52;;;12.23;;
52878;SDS011;38747;53.140;6.498;2022-10-31T00:38:43;26.30;;;12.10;;
52878;SDS011;38747;53.140;6.498;2022-10-31T00:41:10;26.35;;;12.52;;
52878;SDS011;38747;53.140;6.498;2022-10-31T00:43:36;24.48;;;12.38;;
52878;SDS011;38747;53.140;6.498;2022-10-31T00:46:02;26.75;;;11.75;;
52878;SDS011;38747;53.140;6.498;2022-10-31T00:48:28;20.87;;;10.97;;
52878;SDS011;38747;53.140;6.498;2022-10-31T00:50:54;25.17;;;11.73;;
52878;SDS011;38747;53.140;6.498;2022-10-31T00:53:20;23.20;;;11.55;;
52878;SDS011;38747;53.140;6.498;2022-10-31T00:55:46;22.93;;;12.00;;
52878;SDS011;38747;53.140;6.498;2022-10-31T00:58:12;25.73;;;11.68;;
52878;SDS011;38747;53.140;6.498;2022-10-31T01:00:37;27.73;;;11.98;;
52878;SDS011;38747;53.140;6.498;2022-10-31T01:03:03;26.20;;;12.00;;
52878;SDS011;38747;53.140;6.498;2022-10-31T01:05:29;24.80;;;11.77;;
52878;SDS011;38747;53.140;6.498;2022-10-31T01:07:54;24.83;;;11.53;;
52878;SDS011;38747;53.140;6.498;2022-10-31T01:10:20;25.05;;;11.57;;
52878;SDS011;38747;53.140;6.498;2022-10-31T01:12:46;21.20;;;11.77;;
52878;SDS011;38747;53.140;6.498;2022-10-31T01:15:16;23.95;;;11.23;;
52878;SDS011;38747;53.140;6.498;2022-10-31T01:17:45;27.20;;;11.00;;
52878;SDS011;38747;53.140;6.498;2022-10-31T01:20:12;25.98;;;10.90;;
52878;SDS011;38747;53.140;6.498;2022-10-31T01:22:38;27.73;;;10.77;;
52878;SDS011;38747;53.140;6.498;2022-10-31T01:25:04;24.15;;;11.15;;
52878;SDS011;38747;53.140;6.498;2022-10-31T01:27:31;22.67;;;12.27;;
52878;SDS011;38747;53.140;6.498;2022-10-31T01:29:57;21.67;;;10.17;;
52878;SDS011;38747;53.140;6.498;2022-10-31T01:32:22;22.65;;;10.27;;
52878;SDS011;38747;53.140;6.498;2022-10-31T01:34:48;24.10;;;11.00;;
52878;SDS011;38747;53.140;6.498;2022-10-31T01:37:14;24.58;;;11.15;;
52878;SDS011;38747;53.140;6.498;2022-10-31T01:39:40;22.67;;;10.30;;
52878;SDS011;38747;53.140;6.498;2022-10-31T01:42:05;22.17;;;10.23;;
52878;SDS011;38747;53.140;6.498;2022-10-31T01:46:58;24.50;;;10.67;;
52878;SDS011;38747;53.140;6.498;2022-10-31T01:49:38;25.23;;;10.82;;
52878;SDS011;38747;53.140;6.498;2022-10-31T01:52:24;20.30;;;10.20;;
52878;SDS011;38747;53.140;6.498;2022-10-31T01:55:01;23.47;;;10.60;;
52878;SDS011;38747;53.140;6.498;2022-10-31T01:57:30;22.25;;;10.65;;
52878;SDS011;38747;53.140;6.498;2022-10-31T01:59:59;22.42;;;10.15;;
52878;SDS011;38747;53.140;6.498;2022-10-31T02:02:29;26.77;;;10.98;;
52878;SDS011;38747;53.140;6.498;2022-10-31T02:04:56;24.08;;;10.90;;
52878;SDS011;38747;53.140;6.498;2022-10-31T02:07:32;24.43;;;11.23;;
52878;SDS011;38747;53.140;6.498;2022-10-31T02:10:04;21.83;;;11.05;;
52878;SDS011;38747;53.140;6.498;2022-10-31T02:12:31;20.45;;;10.57;;
52878;SDS011;38747;53.140;6.498;2022-10-31T02:14:59;20.75;;;10.23;;
52878;SDS011;38747;53.140;6.498;2022-10-31T02:17:25;23.37;;;11.50;;
52878;SDS011;38747;53.140;6.498;2022-10-31T02:28:40;23.98;;;11.00;;
52878;SDS011;38747;53.140;6.498;2022-10-31T02:34:18;21.80;;;11.27;;
52878;SDS011;38747;53.140;6.498;2022-10-31T02:36:57;21.15;;;11.68;;
52878;SDS011;38747;53.140;6.498;2022-10-31T02:39:37;20.38;;;10.80;;
52878;SDS011;38747;53.140;6.498;2022-10-31T02:47:38;22.23;;;10.82;;
52878;SDS011;38747;53.140;6.498;2022-10-31T02:50:37;23.05;;;11.43;;
52878;SDS011;38747;53.140;6.498;2022-10-31T02:52:58;27.77;;;11.30;;
52878;SDS011;38747;53.140;6.498;2022-10-31T02:57:57;26.50;;;11.10;;
52878;SDS011;38747;53.140;6.498;2022-10-31T03:00:27;27.13;;;11.97;;
52878;SDS011;38747;53.140;6.498;2022-10-31T03:10:57;23.80;;;11.55;;
52878;SDS011;38747;53.140;6.498;2022-10-31T03:16:09;20.67;;;10.63;;
52878;SDS011;38747;53.140;6.498;2022-10-31T03:19:01;25.33;;;11.35;;
52878;SDS011;38747;53.140;6.498;2022-10-31T03:21:35;22.08;;;11.55;;
52878;SDS011;38747;53.140;6.498;2022-10-31T03:24:24;25.38;;;11.02;;
52878;SDS011;38747;53.140;6.498;2022-10-31T03:26:55;27.17;;;11.73;;
52878;SDS011;38747;53.140;6.498;2022-10-31T03:29:25;20.75;;;11.32;;
52878;SDS011;38747;53.140;6.498;2022-10-31T03:34:21;22.00;;;10.55;;
52878;SDS011;38747;53.140;6.498;2022-10-31T03:36:49;23.83;;;10.90;;
52878;SDS011;38747;53.140;6.498;2022-10-31T03:39:17;21.40;;;10.85;;
52878;SDS011;38747;53.140;6.498;2022-10-31T03:41:47;22.45;;;11.07;;
52878;SDS011;38747;53.140;6.498;2022-10-31T03:44:19;22.20;;;10.98;;
52878;SDS011;38747;53.140;6.498;2022-10-31T03:46:47;19.83;;;10.57;;
52878;SDS011;38747;53.140;6.498;2022-10-31T03:49:12;28.50;;;10.43;;
52878;SDS011;38747;53.140;6.498;2022-10-31T03:51:47;21.83;;;10.57;;
52878;SDS011;38747;53.140;6.498;2022-10-31T03:54:23;23.08;;;9.50;;
52878;SDS011;38747;53.140;6.498;2022-10-31T03:56:53;21.05;;;10.68;;
52878;SDS011;38747;53.140;6.498;2022-10-31T03:59:30;22.67;;;9.00;;
52878;SDS011;38747;53.140;6.498;2022-10-31T04:02:01;19.00;;;9.60;;
52878;SDS011;38747;53.140;6.498;2022-10-31T04:04:32;19.90;;;9.73;;
52878;SDS011;38747;53.140;6.498;2022-10-31T04:06:59;15.40;;;7.60;;
52878;SDS011;38747;53.140;6.498;2022-10-31T04:09:27;15.18;;;7.85;;
52878;SDS011;38747;53.140;6.498;2022-10-31T04:11:55;15.53;;;7.33;;
52878;SDS011;38747;53.140;6.498;2022-10-31T04:14:23;12.13;;;6.68;;
52878;SDS011;38747;53.140;6.498;2022-10-31T04:16:51;14.77;;;7.07;;
52878;SDS011;38747;53.140;6.498;2022-10-31T04:19:17;17.13;;;6.30;;
52878;SDS011;38747;53.140;6.498;2022-10-31T04:21:43;14.23;;;7.50;;
52878;SDS011;38747;53.140;6.498;2022-10-31T04:24:08;13.85;;;6.63;;
52878;SDS011;38747;53.140;6.498;2022-10-31T04:26:34;12.47;;;6.20;;
52878;SDS011;38747;53.140;6.498;2022-10-31T04:29:00;11.63;;;5.75;;
52878;SDS011;38747;53.140;6.498;2022-10-31T04:31:26;12.02;;;6.22;;
52878;SDS011;38747;53.140;6.498;2022-10-31T04:33:52;13.97;;;7.87;;
52878;SDS011;38747;53.140;6.498;2022-10-31T04:36:17;15.73;;;7.95;;
52878;SDS011;38747;53.140;6.498;2022-10-31T04:38:43;20.53;;;7.73;;
52878;SDS011;38747;53.140;6.498;2022-10-31T04:41:08;11.13;;;6.53;;
52878;SDS011;38747;53.140;6.498;2022-10-31T04:43:34;14.57;;;7.32;;
52878;SDS011;38747;53.140;6.498;2022-10-31T04:46:00;17.13;;;8.60;;
52878;SDS011;38747;53.140;6.498;2022-10-31T04:48:26;16.70;;;9.00;;
52878;SDS011;38747;53.140;6.498;2022-10-31T04:50:51;15.20;;;7.97;;
52878;SDS011;38747;53.140;6.498;2022-10-31T04:53:17;17.13;;;8.50;;
52878;SDS011;38747;53.140;6.498;2022-10-31T04:55:43;16.30;;;8.67;;
52878;SDS011;38747;53.140;6.498;2022-10-31T04:58:08;13.20;;;7.20;;
52878;SDS011;38747;53.140;6.498;2022-10-31T05:00:34;16.37;;;7.67;;
52878;SDS011;38747;53.140;6.498;2022-10-31T05:02:59;17.23;;;8.93;;
52878;SDS011;38747;53.140;6.498;2022-10-31T05:05:26;17.90;;;8.87;;
52878;SDS011;38747;53.140;6.498;2022-10-31T05:07:56;17.92;;;8.40;;
52878;SDS011;38747;53.140;6.498;2022-10-31T05:10:23;15.83;;;7.60;;
52878;SDS011;38747;53.140;6.498;2022-10-31T05:12:52;12.18;;;7.60;;
52878;SDS011;38747;53.140;6.498;2022-10-31T05:15:19;17.88;;;8.82;;
52878;SDS011;38747;53.140;6.498;2022-10-31T05:17:47;16.90;;;8.90;;
52878;SDS011;38747;53.140;6.498;2022-10-31T05:20:14;17.95;;;9.82;;
52878;SDS011;38747;53.140;6.498;2022-10-31T05:22:44;19.43;;;10.80;;
52878;SDS011;38747;53.140;6.498;2022-10-31T05:25:13;17.63;;;9.55;;
52878;SDS011;38747;53.140;6.498;2022-10-31T05:27:40;20.27;;;10.95;;
52878;SDS011;38747;53.140;6.498;2022-10-31T05:30:07;17.95;;;10.13;;
52878;SDS011;38747;53.140;6.498;2022-10-31T05:32:40;19.85;;;11.00;;
52878;SDS011;38747;53.140;6.498;2022-10-31T05:35:07;18.83;;;9.97;;
52878;SDS011;38747;53.140;6.498;2022-10-31T05:37:37;18.00;;;10.45;;
52878;SDS011;38747;53.140;6.498;2022-10-31T05:40:04;19.70;;;10.73;;
52878;SDS011;38747;53.140;6.498;2022-10-31T05:42:31;21.42;;;11.35;;
52878;SDS011;38747;53.140;6.498;2022-10-31T05:44:57;19.90;;;11.13;;
52878;SDS011;38747;53.140;6.498;2022-10-31T05:47:22;21.38;;;10.90;;
52878;SDS011;38747;53.140;6.498;2022-10-31T05:49:48;19.67;;;11.88;;
52878;SDS011;38747;53.140;6.498;2022-10-31T05:52:14;20.60;;;11.73;;
52878;SDS011;38747;53.140;6.498;2022-10-31T05:54:40;20.73;;;11.68;;
52878;SDS011;38747;53.140;6.498;2022-10-31T05:57:06;20.57;;;10.80;;
52878;SDS011;38747;53.140;6.498;2022-10-31T05:59:31;18.27;;;10.55;;
52878;SDS011;38747;53.140;6.498;2022-10-31T06:01:57;17.23;;;10.67;;
52878;SDS011;38747;53.140;6.498;2022-10-31T06:04:23;17.77;;;10.80;;
52878;SDS011;38747;53.140;6.498;2022-10-31T06:06:48;19.33;;;11.07;;
52878;SDS011;38747;53.140;6.498;2022-10-31T06:09:14;21.00;;;10.38;;
52878;SDS011;38747;53.140;6.498;2022-10-31T06:11:39;21.07;;;11.03;;
52878;SDS011;38747;53.140;6.498;2022-10-31T06:14:05;18.67;;;10.23;;
52878;SDS011;38747;53.140;6.498;2022-10-31T06:16:31;19.38;;;10.82;;
52878;SDS011;38747;53.140;6.498;2022-10-31T06:18:57;23.20;;;11.23;;
52878;SDS011;38747;53.140;6.498;2022-10-31T06:21:22;22.33;;;11.60;;
52878;SDS011;38747;53.140;6.498;2022-10-31T06:23:48;19.87;;;11.53;;
52878;SDS011;38747;53.140;6.498;2022-10-31T06:26:14;18.83;;;10.95;;
52878;SDS011;38747;53.140;6.498;2022-10-31T06:28:39;16.88;;;10.63;;
52878;SDS011;38747;53.140;6.498;2022-10-31T06:31:05;18.87;;;10.70;;
52878;SDS011;38747;53.140;6.498;2022-10-31T06:33:31;18.40;;;10.10;;
52878;SDS011;38747;53.140;6.498;2022-10-31T06:35:57;21.07;;;11.40;;
52878;SDS011;38747;53.140;6.498;2022-10-31T06:38:22;15.77;;;9.82;;
52878;SDS011;38747;53.140;6.498;2022-10-31T06:40:50;17.50;;;10.40;;
52878;SDS011;38747;53.140;6.498;2022-10-31T06:43:15;17.70;;;9.83;;
52878;SDS011;38747;53.140;6.498;2022-10-31T06:45:41;17.33;;;9.85;;
52878;SDS011;38747;53.140;6.498;2022-10-31T06:48:07;15.93;;;9.70;;
52878;SDS011;38747;53.140;6.498;2022-10-31T06:50:32;20.83;;;8.18;;
52878;SDS011;38747;53.140;6.498;2022-10-31T06:52:58;17.13;;;8.60;;
52878;SDS011;38747;53.140;6.498;2022-10-31T06:55:24;17.63;;;9.50;;
52878;SDS011;38747;53.140;6.498;2022-10-31T07:00:23;17.98;;;9.27;;
52878;SDS011;38747;53.140;6.498;2022-10-31T07:03:09;19.63;;;10.48;;
52878;SDS011;38747;53.140;6.498;2022-10-31T07:05:36;16.10;;;8.27;;
52878;SDS011;38747;53.140;6.498;2022-10-31T07:08:03;14.52;;;8.38;;
52878;SDS011;38747;53.140;6.498;2022-10-31T07:10:32;15.73;;;8.30;;
52878;SDS011;38747;53.140;6.498;2022-10-31T07:13:00;23.58;;;8.77;;
52878;SDS011;38747;53.140;6.498;2022-10-31T07:15:27;22.33;;;9.25;;
52878;SDS011;38747;53.140;6.498;2022-10-31T07:17:58;23.35;;;8.70;;
52878;SDS011;38747;53.140;6.498;2022-10-31T07:20:25;17.67;;;8.00;;
52878;SDS011;38747;53.140;6.498;2022-10-31T07:22:51;18.13;;;8.57;;
52878;SDS011;38747;53.140;6.498;2022-10-31T07:25:21;21.05;;;9.73;;
52878;SDS011;38747;53.140;6.498;2022-10-31T07:27:50;18.55;;;9.20;;
52878;SDS011;38747;53.140;6.498;2022-10-31T07:30:16;17.23;;;9.10;;
52878;SDS011;38747;53.140;6.498;2022-10-31T07:32:48;16.90;;;9.00;;
52878;SDS011;38747;53.140;6.498;2022-10-31T07:35:15;18.05;;;9.50;;
52878;SDS011;38747;53.140;6.498;2022-10-31T07:37:46;17.75;;;9.52;;
52878;SDS011;38747;53.140;6.498;2022-10-31T07:40:12;16.17;;;9.88;;
52878;SDS011;38747;53.140;6.498;2022-10-31T07:42:40;18.30;;;10.30;;
52878;SDS011;38747;53.140;6.498;2022-10-31T07:45:08;18.05;;;10.98;;
52878;SDS011;38747;53.140;6.498;2022-10-31T07:47:39;17.90;;;11.05;;
52878;SDS011;38747;53.140;6.498;2022-10-31T07:50:06;20.65;;;12.48;;
52878;SDS011;38747;53.140;6.498;2022-10-31T07:52:38;21.85;;;12.57;;
52878;SDS011;38747;53.140;6.498;2022-10-31T07:55:04;23.40;;;13.23;;
52878;SDS011;38747;53.140;6.498;2022-10-31T07:57:30;22.92;;;12.23;;
52878;SDS011;38747;53.140;6.498;2022-10-31T07:59:56;27.50;;;14.43;;
52878;SDS011;38747;53.140;6.498;2022-10-31T08:02:22;27.03;;;14.47;;
52878;SDS011;38747;53.140;6.498;2022-10-31T08:04:48;24.55;;;13.82;;
52878;SDS011;38747;53.140;6.498;2022-10-31T08:07:14;27.52;;;14.77;;
52878;SDS011;38747;53.140;6.498;2022-10-31T08:09:40;25.73;;;14.45;;
52878;SDS011;38747;53.140;6.498;2022-10-31T08:12:06;28.83;;;14.83;;
52878;SDS011;38747;53.140;6.498;2022-10-31T08:14:31;27.47;;;15.00;;
52878;SDS011;38747;53.140;6.498;2022-10-31T08:16:57;28.00;;;14.90;;
52878;SDS011;38747;53.140;6.498;2022-10-31T08:19:23;24.63;;;14.40;;
52878;SDS011;38747;53.140;6.498;2022-10-31T08:21:52;28.13;;;15.10;;
52878;SDS011;38747;53.140;6.498;2022-10-31T08:24:19;28.33;;;15.02;;
52878;SDS011;38747;53.140;6.498;2022-10-31T08:26:45;26.60;;;14.33;;
52878;SDS011;38747;53.140;6.498;2022-10-31T08:29:11;25.35;;;14.90;;
52878;SDS011;38747;53.140;6.498;2022-10-31T08:31:37;25.23;;;13.55;;
52878;SDS011;38747;53.140;6.498;2022-10-31T08:34:03;26.17;;;14.90;;
52878;SDS011;38747;53.140;6.498;2022-10-31T08:36:29;24.38;;;13.85;;
52878;SDS011;38747;53.140;6.498;2022-10-31T08:38:58;23.93;;;14.13;;
52878;SDS011;38747;53.140;6.498;2022-10-31T08:41:23;24.80;;;14.02;;
52878;SDS011;38747;53.140;6.498;2022-10-31T08:43:49;21.73;;;13.32;;
52878;SDS011;38747;53.140;6.498;2022-10-31T08:46:15;25.17;;;14.27;;
52878;SDS011;38747;53.140;6.498;2022-10-31T08:48:41;27.52;;;14.77;;
52878;SDS011;38747;53.140;6.498;2022-10-31T08:51:08;26.95;;;14.65;;
52878;SDS011;38747;53.140;6.498;2022-10-31T08:53:34;27.20;;;14.73;;
52878;SDS011;38747;53.140;6.498;2022-10-31T08:56:02;24.95;;;14.77;;
52878;SDS011;38747;53.140;6.498;2022-10-31T08:58:27;26.93;;;15.00;;
52878;SDS011;38747;53.140;6.498;2022-10-31T09:00:53;25.60;;;14.88;;
52878;SDS011;38747;53.140;6.498;2022-10-31T09:03:25;25.00;;;14.77;;
52878;SDS011;38747;53.140;6.498;2022-10-31T09:05:59;26.00;;;14.60;;
52878;SDS011;38747;53.140;6.498;2022-10-31T09:08:25;27.88;;;15.15;;
52878;SDS011;38747;53.140;6.498;2022-10-31T09:10:55;27.38;;;15.02;;
52878;SDS011;38747;53.140;6.498;2022-10-31T09:13:21;27.67;;;15.23;;
52878;SDS011;38747;53.140;6.498;2022-10-31T09:15:47;24.57;;;15.07;;
52878;SDS011;38747;53.140;6.498;2022-10-31T09:18:15;27.70;;;14.60;;
52878;SDS011;38747;53.140;6.498;2022-10-31T09:20:43;26.92;;;15.63;;
52878;SDS011;38747;53.140;6.498;2022-10-31T09:23:11;27.17;;;15.18;;
52878;SDS011;38747;53.140;6.498;2022-10-31T09:25:41;26.27;;;14.83;;
52878;SDS011;38747;53.140;6.498;2022-10-31T09:28:09;26.05;;;14.65;;
52878;SDS011;38747;53.140;6.498;2022-10-31T09:30:36;26.88;;;14.20;;
52878;SDS011;38747;53.140;6.498;2022-10-31T09:33:03;28.33;;;14.80;;
52878;SDS011;38747;53.140;6.498;2022-10-31T09:35:31;23.30;;;13.90;;
52878;SDS011;38747;53.140;6.498;2022-10-31T09:37:58;25.83;;;14.13;;
52878;SDS011;38747;53.140;6.498;2022-10-31T09:40:38;26.05;;;14.15;;
52878;SDS011;38747;53.140;6.498;2022-10-31T09:43:28;22.92;;;14.50;;
52878;SDS011;38747;53.140;6.498;2022-10-31T09:46:24;25.17;;;13.98;;
52878;SDS011;38747;53.140;6.498;2022-10-31T09:51:45;25.60;;;13.80;;
52878;SDS011;38747;53.140;6.498;2022-10-31T09:54:35;23.95;;;13.45;;
52878;SDS011;38747;53.140;6.498;2022-10-31T09:57:14;24.45;;;13.45;;
52878;SDS011;38747;53.140;6.498;2022-10-31T09:59:42;20.35;;;13.02;;
52878;SDS011;38747;53.140;6.498;2022-10-31T10:05:14;23.90;;;12.73;;
52878;SDS011;38747;53.140;6.498;2022-10-31T10:08:13;21.92;;;12.90;;
52878;SDS011;38747;53.140;6.498;2022-10-31T10:10:49;21.85;;;13.20;;
52878;SDS011;38747;53.140;6.498;2022-10-31T10:21:39;21.20;;;12.32;;
52878;SDS011;38747;53.140;6.498;2022-10-31T10:30:19;21.70;;;13.02;;
52878;SDS011;38747;53.140;6.498;2022-10-31T10:33:14;22.00;;;13.17;;
52878;SDS011;38747;53.140;6.498;2022-10-31T10:35:42;22.70;;;13.65;;
52878;SDS011;38747;53.140;6.498;2022-10-31T10:38:15;25.05;;;14.05;;
52878;SDS011;38747;53.140;6.498;2022-10-31T10:40:48;22.42;;;12.70;;
52878;SDS011;38747;53.140;6.498;2022-10-31T10:43:21;24.60;;;14.27;;
52878;SDS011;38747;53.140;6.498;2022-10-31T10:45:50;22.67;;;12.70;;
52878;SDS011;38747;53.140;6.498;2022-10-31T10:48:45;23.63;;;13.23;;
52878;SDS011;38747;53.140;6.498;2022-10-31T10:51:21;23.77;;;12.73;;
52878;SDS011;38747;53.140;6.498;2022-10-31T10:59:45;25.23;;;14.40;;
52878;SDS011;38747;53.140;6.498;2022-10-31T11:02:19;21.33;;;13.82;;
52878;SDS011;38747;53.140;6.498;2022-10-31T11:04:53;23.52;;;14.10;;
52878;SDS011;38747;53.140;6.498;2022-10-31T11:07:20;23.40;;;12.88;;
52878;SDS011;38747;53.140;6.498;2022-10-31T11:09:47;23.45;;;14.07;;
52878;SDS011;38747;53.140;6.498;2022-10-31T11:12:17;24.33;;;13.80;;
52878;SDS011;38747;53.140;6.498;2022-10-31T11:14:56;21.63;;;13.13;;
52878;SDS011;38747;53.140;6.498;2022-10-31T11:20:00;23.23;;;13.45;;
52878;SDS011;38747;53.140;6.498;2022-10-31T11:22:31;22.17;;;12.67;;
52878;SDS011;38747;53.140;6.498;2022-10-31T11:24:56;21.58;;;12.63;;
52878;SDS011;38747;53.140;6.498;2022-10-31T11:27:23;20.50;;;11.87;;
52878;SDS011;38747;53.140;6.498;2022-10-31T11:29:50;18.25;;;10.90;;
52878;SDS011;38747;53.140;6.498;2022-10-31T11:32:17;19.48;;;10.95;;
52878;SDS011;38747;53.140;6.498;2022-10-31T11:34:56;17.52;;;10.10;;
52878;SDS011;38747;53.140;6.498;2022-10-31T11:37:26;17.53;;;9.13;;
52878;SDS011;38747;53.140;6.498;2022-10-31T11:39:58;16.63;;;9.10;;
52878;SDS011;38747;53.140;6.498;2022-10-31T11:42:27;18.23;;;9.20;;
52878;SDS011;38747;53.140;6.498;2022-10-31T11:45:07;15.93;;;8.60;;
52878;SDS011;38747;53.140;6.498;2022-10-31T11:47:41;14.82;;;8.57;;
52878;SDS011;38747;53.140;6.498;2022-10-31T11:50:25;17.73;;;8.43;;
52878;SDS011;38747;53.140;6.498;2022-10-31T11:53:03;17.23;;;8.55;;
52878;SDS011;38747;53.140;6.498;2022-10-31T11:55:37;15.10;;;8.05;;
52878;SDS011;38747;53.140;6.498;2022-10-31T11:58:05;15.80;;;8.77;;
52878;SDS011;38747;53.140;6.498;2022-10-31T12:00:49;16.13;;;8.00;;
52878;SDS011;38747;53.140;6.498;2022-10-31T12:05:53;15.18;;;7.95;;
52878;SDS011;38747;53.140;6.498;2022-10-31T12:08:28;15.27;;;7.10;;
52878;SDS011;38747;53.140;6.498;2022-10-31T12:16:24;14.10;;;6.50;;
52878;SDS011;38747;53.140;6.498;2022-10-31T12:18:58;16.23;;;6.50;;
52878;SDS011;38747;53.140;6.498;2022-10-31T12:21:59;13.80;;;6.18;;
52878;SDS011;38747;53.140;6.498;2022-10-31T12:27:36;14.73;;;5.80;;
52878;SDS011;38747;53.140;6.498;2022-10-31T12:30:26;11.50;;;5.57;;
52878;SDS011;38747;53.140;6.498;2022-10-31T12:35:44;11.88;;;5.43;;
52878;SDS011;38747;53.140;6.498;2022-10-31T12:38:28;12.80;;;4.95;;
52878;SDS011;38747;53.140;6.498;2022-10-31T12:41:19;13.68;;;4.90;;
52878;SDS011;38747;53.140;6.498;2022-10-31T12:52:27;11.63;;;4.32;;
52878;SDS011;38747;53.140;6.498;2022-10-31T12:57:35;11.03;;;4.27;;
52878;SDS011;38747;53.140;6.498;2022-10-31T13:00:04;10.52;;;4.30;;
52878;SDS011;38747;53.140;6.498;2022-10-31T13:02:32;11.10;;;3.78;;
52878;SDS011;38747;53.140;6.498;2022-10-31T13:05:05;9.55;;;4.00;;
52878;SDS011;38747;53.140;6.498;2022-10-31T13:07:51;8.57;;;3.53;;
52878;SDS011;38747;53.140;6.498;2022-10-31T13:13:16;8.38;;;3.17;;
52878;SDS011;38747;53.140;6.498;2022-10-31T13:15:54;11.48;;;2.88;;
52878;SDS011;38747;53.140;6.498;2022-10-31T13:18:33;9.93;;;3.60;;
52878;SDS011;38747;53.140;6.498;2022-10-31T13:21:02;13.40;;;3.65;;
52878;SDS011;38747;53.140;6.498;2022-10-31T13:23:33;12.60;;;4.33;;
52878;SDS011;38747;53.140;6.498;2022-10-31T13:26:12;13.52;;;3.95;;
52878;SDS011;38747;53.140;6.498;2022-10-31T13:31:41;12.52;;;4.20;;
52878;SDS011;38747;53.140;6.498;2022-10-31T13:34:16;11.35;;;4.45;;
52878;SDS011;38747;53.140;6.498;2022-10-31T13:43:05;10.85;;;3.30;;
52878;SDS011;38747;53.140;6.498;2022-10-31T13:45:32;10.02;;;3.25;;
52878;SDS011;38747;53.140;6.498;2022-10-31T13:48:17;13.07;;;3.80;;
52878;SDS011;38747;53.140;6.498;2022-10-31T13:51:03;10.18;;;3.55;;
52878;SDS011;38747;53.140;6.498;2022-10-31T13:53:35;13.48;;;4.38;;
52878;SDS011;38747;53.140;6.498;2022-10-31T13:56:22;12.32;;;3.85;;
52878;SDS011;38747;53.140;6.498;2022-10-31T13:59:11;11.45;;;4.15;;
52878;SDS011;38747;53.140;6.498;2022-10-31T14:01:55;14.00;;;3.67;;
52878;SDS011;38747;53.140;6.498;2022-10-31T14:04:28;9.77;;;3.88;;
52878;SDS011;38747;53.140;6.498;2022-10-31T14:07:09;10.05;;;4.22;;
52878;SDS011;38747;53.140;6.498;2022-10-31T14:09:38;12.32;;;4.30;;
52878;SDS011;38747;53.140;6.498;2022-10-31T14:12:52;10.35;;;3.90;;
52878;SDS011;38747;53.140;6.498;2022-10-31T14:15:00;13.27;;;3.83;;
52878;SDS011;38747;53.140;6.498;2022-10-31T14:17:44;11.43;;;4.30;;
52878;SDS011;38747;53.140;6.498;2022-10-31T14:22:39;10.85;;;3.55;;
52878;SDS011;38747;53.140;6.498;2022-10-31T14:27:49;11.70;;;3.65;;
52878;SDS011;38747;53.140;6.498;2022-10-31T14:30:17;12.77;;;3.90;;
52878;SDS011;38747;53.140;6.498;2022-10-31T14:32:55;11.13;;;4.00;;
52878;SDS011;38747;53.140;6.498;2022-10-31T14:36:00;12.82;;;3.97;;
52878;SDS011;38747;53.140;6.498;2022-10-31T14:39:11;12.80;;;4.37;;
52878;SDS011;38747;53.140;6.498;2022-10-31T14:47:06;12.55;;;5.00;;
52878;SDS011;38747;53.140;6.498;2022-10-31T14:49:37;15.68;;;5.43;;
52878;SDS011;38747;53.140;6.498;2022-10-31T14:52:05;12.60;;;4.90;;
52878;SDS011;38747;53.140;6.498;2022-10-31T14:54:34;11.77;;;5.10;;
52878;SDS011;38747;53.140;6.498;2022-10-31T14:57:06;12.90;;;5.40;;
52878;SDS011;38747;53.140;6.498;2022-10-31T14:59:43;11.25;;;5.05;;
52878;SDS011;38747;53.140;6.498;2022-10-31T15:03:04;13.75;;;5.20;;
52878;SDS011;38747;53.140;6.498;2022-10-31T15:05:05;14.50;;;5.23;;
52878;SDS011;38747;53.140;6.498;2022-10-31T15:07:36;16.30;;;6.07;;
52878;SDS011;38747;53.140;6.498;2022-10-31T15:10:23;13.63;;;5.05;;
52878;SDS011;38747;53.140;6.498;2022-10-31T15:12:55;14.20;;;5.03;;
52878;SDS011;38747;53.140;6.498;2022-10-31T15:15:21;14.82;;;5.20;;
52878;SDS011;38747;53.140;6.498;2022-10-31T15:17:51;13.40;;;4.97;;
52878;SDS011;38747;53.140;6.498;2022-10-31T15:20:20;13.95;;;5.30;;
52878;SDS011;38747;53.140;6.498;2022-10-31T15:22:48;14.73;;;5.72;;
52878;SDS011;38747;53.140;6.498;2022-10-31T15:25:16;12.00;;;5.10;;
52878;SDS011;38747;53.140;6.498;2022-10-31T15:27:43;13.38;;;5.43;;
52878;SDS011;38747;53.140;6.498;2022-10-31T15:30:19;11.47;;;4.50;;
52878;SDS011;38747;53.140;6.498;2022-10-31T15:32:47;14.98;;;5.10;;
52878;SDS011;38747;53.140;6.498;2022-10-31T15:35:24;12.80;;;4.88;;
52878;SDS011;38747;53.140;6.498;2022-10-31T15:37:54;12.63;;;4.82;;
52878;SDS011;38747;53.140;6.498;2022-10-31T15:40:22;15.07;;;5.07;;
52878;SDS011;38747;53.140;6.498;2022-10-31T15:45:23;13.77;;;5.53;;
52878;SDS011;38747;53.140;6.498;2022-10-31T15:47:53;16.13;;;5.65;;
52878;SDS011;38747;53.140;6.498;2022-10-31T15:50:32;10.18;;;5.78;;
52878;SDS011;38747;53.140;6.498;2022-10-31T15:53:05;17.27;;;5.93;;
52878;SDS011;38747;53.140;6.498;2022-10-31T15:55:45;16.85;;;6.10;;
52878;SDS011;38747;53.140;6.498;2022-10-31T15:58:18;18.05;;;6.72;;
52878;SDS011;38747;53.140;6.498;2022-10-31T16:00:44;13.57;;;6.43;;
52878;SDS011;38747;53.140;6.498;2022-10-31T16:03:20;16.13;;;6.60;;
52878;SDS011;38747;53.140;6.498;2022-10-31T16:05:50;13.43;;;6.30;;
52878;SDS011;38747;53.140;6.498;2022-10-31T16:16:29;16.67;;;5.87;;
52878;SDS011;38747;53.140;6.498;2022-10-31T16:18:56;17.90;;;5.93;;
52878;SDS011;38747;53.140;6.498;2022-10-31T16:21:30;15.10;;;6.82;;
52878;SDS011;38747;53.140;6.498;2022-10-31T16:24:02;16.48;;;5.78;;
52878;SDS011;38747;53.140;6.498;2022-10-31T16:26:39;16.67;;;6.38;;
52878;SDS011;38747;53.140;6.498;2022-10-31T16:29:22;13.43;;;5.97;;
52878;SDS011;38747;53.140;6.498;2022-10-31T16:31:57;14.50;;;5.28;;
52878;SDS011;38747;53.140;6.498;2022-10-31T16:34:23;13.97;;;5.60;;
52878;SDS011;38747;53.140;6.498;2022-10-31T16:36:49;14.48;;;5.72;;
52878;SDS011;38747;53.140;6.498;2022-10-31T16:39:15;14.80;;;5.93;;
52878;SDS011;38747;53.140;6.498;2022-10-31T16:41:42;12.02;;;5.90;;
52878;SDS011;38747;53.140;6.498;2022-10-31T16:44:23;13.77;;;5.63;;
52878;SDS011;38747;53.140;6.498;2022-10-31T16:49:31;12.43;;;5.75;;
52878;SDS011;38747;53.140;6.498;2022-10-31T16:52:00;11.38;;;5.53;;
52878;SDS011;38747;53.140;6.498;2022-10-31T16:54:25;11.93;;;5.50;;
52878;SDS011;38747;53.140;6.498;2022-10-31T16:56:53;11.70;;;5.68;;